sensor_id;sensor_type;location;lat;lon;timestamp;temperature;humidity
16172;DHT22;8192;53.596;10.166;2023-11-19T00:00:59;5.10;99.90
16172;DHT22;8192;53.596;10.166;2023-11-19T00:03:29;5.10;99.90
16172;DHT22;8192;53.596;10.166;2023-11-19T00:05:58;5.10;99.90
16172;DHT22;8192;53.596;10.166;2023-11-19T00:08:25;5.10;99.90
16172;DHT22;8192;53.596;10.166;2023-11-19T00:10:52;5.20;99.90
16172;DHT22;8192;53.596;10.166;2023-11-19T00:13:19;5.20;99.90
16172;DHT22;8192;53.596;10.166;2023-11-19T00:15:46;5.20;99.90
16172;DHT22;8192;53.596;10.166;2023-11-19T00:18:13;5.20;99.90
16172;DHT22;8192;53.596;10.166;2023-11-19T00:20:41;5.20;99.90
16172;DHT22;8192;53.596;10.166;2023-11-19T00:23:11;5.20;99.90
16172;DHT22;8192;53.596;10.166;2023-11-19T00:25:38;5.20;99.90
16172;DHT22;8192;53.596;10.166;2023-11-19T00:28:05;5.20;99.90
16172;DHT22;8192;53.596;10.166;2023-11-19T00:30:32;5.20;99.90
16172;DHT22;8192;53.596;10.166;2023-11-19T00:32:59;5.10;99.90
16172;DHT22;8192;53.596;10.166;2023-11-19T00:35:26;5.20;99.90
16172;DHT22;8192;53.596;10.166;2023-11-19T00:37:53;5.20;99.90
16172;DHT22;8192;53.596;10.166;2023-11-19T00:40:22;5.20;99.90
16172;DHT22;8192;53.596;10.166;2023-11-19T00:42:49;5.20;99.90
16172;DHT22;8192;53.596;10.166;2023-11-19T00:45:16;5.20;99.90
16172;DHT22;8192;53.596;10.166;2023-11-19T00:47:43;5.20;99.90
16172;DHT22;8192;53.596;10.166;2023-11-19T00:50:10;5.20;99.90
16172;DHT22;8192;53.596;10.166;2023-11-19T00:52:38;5.30;99.90
16172;DHT22;8192;53.596;10.166;2023-11-19T00:55:06;5.20;99.90
16172;DHT22;8192;53.596;10.166;2023-11-19T00:57:35;5.20;99.90
16172;DHT22;8192;53.596;10.166;2023-11-19T01:00:02;5.30;99.90
16172;DHT22;8192;53.596;10.166;2023-11-19T01:02:34;5.30;99.90
16172;DHT22;8192;53.596;10.166;2023-11-19T01:05:01;5.30;99.90
16172;DHT22;8192;53.596;10.166;2023-11-19T01:07:28;5.40;99.90
16172;DHT22;8192;53.596;10.166;2023-11-19T01:09:55;5.40;99.90
16172;DHT22;8192;53.596;10.166;2023-11-19T01:12:22;5.40;99.90
16172;DHT22;8192;53.596;10.166;2023-11-19T01:14:51;5.30;99.90
16172;DHT22;8192;53.596;10.166;2023-11-19T01:17:18;5.40;99.90
16172;DHT22;8192;53.596;10.166;2023-11-19T01:19:45;5.40;99.90
16172;DHT22;8192;53.596;10.166;2023-11-19T01:22:12;5.30;99.90
16172;DHT22;8192;53.596;10.166;2023-11-19T01:24:39;5.30;99.90
16172;DHT22;8192;53.596;10.166;2023-11-19T01:27:06;5.30;99.90
16172;DHT22;8192;53.596;10.166;2023-11-19T01:29:32;5.40;99.90
16172;DHT22;8192;53.596;10.166;2023-11-19T01:32:01;5.40;99.90
16172;DHT22;8192;53.596;10.166;2023-11-19T01:34:28;5.40;99.90
16172;DHT22;8192;53.596;10.166;2023-11-19T01:36:55;5.40;99.90
16172;DHT22;8192;53.596;10.166;2023-11-19T01:39:22;5.30;99.90
16172;DHT22;8192;53.596;10.166;2023-11-19T01:41:49;5.30;99.90
16172;DHT22;8192;53.596;10.166;2023-11-19T01:44:15;5.30;99.90
16172;DHT22;8192;53.596;10.166;2023-11-19T01:46:44;5.40;99.90
16172;DHT22;8192;53.596;10.166;2023-11-19T01:49:14;5.40;99.90
16172;DHT22;8192;53.596;10.166;2023-11-19T01:51:42;5.40;99.90
16172;DHT22;8192;53.596;10.166;2023-11-19T01:54:09;5.50;99.90
16172;DHT22;8192;53.596;10.166;2023-11-19T01:56:37;5.40;99.90
16172;DHT22;8192;53.596;10.166;2023-11-19T01:59:07;5.40;99.90
16172;DHT22;8192;53.596;10.166;2023-11-19T02:01:35;5.40;99.90
16172;DHT22;8192;53.596;10.166;2023-11-19T02:04:05;5.50;99.90
16172;DHT22;8192;53.596;10.166;2023-11-19T02:06:35;5.50;99.90
16172;DHT22;8192;53.596;10.166;2023-11-19T02:09:04;5.40;99.90
16172;DHT22;8192;53.596;10.166;2023-11-19T02:11:33;5.40;99.90
16172;DHT22;8192;53.596;10.166;2023-11-19T02:14:00;5.40;99.90
16172;DHT22;8192;53.596;10.166;2023-11-19T02:16:28;5.40;99.90
16172;DHT22;8192;53.596;10.166;2023-11-19T02:18:57;5.40;99.90
16172;DHT22;8192;53.596;10.166;2023-11-19T02:21:24;5.40;99.90
16172;DHT22;8192;53.596;10.166;2023-11-19T02:23:53;5.40;99.90
16172;DHT22;8192;53.596;10.166;2023-11-19T02:26:28;5.40;99.90
16172;DHT22;8192;53.596;10.166;2023-11-19T02:28:57;5.40;99.90
16172;DHT22;8192;53.596;10.166;2023-11-19T02:31:24;5.40;99.90
16172;DHT22;8192;53.596;10.166;2023-11-19T02:33:53;5.50;99.90
16172;DHT22;8192;53.596;10.166;2023-11-19T02:36:20;5.50;99.90
16172;DHT22;8192;53.596;10.166;2023-11-19T02:38:47;5.40;99.90
16172;DHT22;8192;53.596;10.166;2023-11-19T02:41:15;5.50;99.90
16172;DHT22;8192;53.596;10.166;2023-11-19T02:43:42;5.60;99.90
16172;DHT22;8192;53.596;10.166;2023-11-19T02:46:10;5.50;99.90
16172;DHT22;8192;53.596;10.166;2023-11-19T02:48:37;5.60;99.90
16172;DHT22;8192;53.596;10.166;2023-11-19T02:51:05;5.50;99.90
16172;DHT22;8192;53.596;10.166;2023-11-19T02:53:35;5.50;99.90
16172;DHT22;8192;53.596;10.166;2023-11-19T02:56:03;5.50;99.90
16172;DHT22;8192;53.596;10.166;2023-11-19T02:58:42;5.60;99.90
16172;DHT22;8192;53.596;10.166;2023-11-19T03:01:11;5.60;99.90
16172;DHT22;8192;53.596;10.166;2023-11-19T03:03:48;5.60;99.90
16172;DHT22;8192;53.596;10.166;2023-11-19T03:06:19;5.70;99.90
16172;DHT22;8192;53.596;10.166;2023-11-19T03:08:48;5.70;99.90
16172;DHT22;8192;53.596;10.166;2023-11-19T03:11:15;5.70;99.90
16172;DHT22;8192;53.596;10.166;2023-11-19T03:13:42;5.70;99.90
16172;DHT22;8192;53.596;10.166;2023-11-19T03:16:11;5.70;99.90
16172;DHT22;8192;53.596;10.166;2023-11-19T03:18:38;5.70;99.90
16172;DHT22;8192;53.596;10.166;2023-11-19T03:21:05;5.70;99.90
16172;DHT22;8192;53.596;10.166;2023-11-19T03:23:33;5.80;99.90
16172;DHT22;8192;53.596;10.166;2023-11-19T03:26:00;5.80;99.90
16172;DHT22;8192;53.596;10.166;2023-11-19T03:28:29;5.80;99.90
16172;DHT22;8192;53.596;10.166;2023-11-19T03:30:56;5.80;99.90
16172;DHT22;8192;53.596;10.166;2023-11-19T03:33:24;5.80;99.90
16172;DHT22;8192;53.596;10.166;2023-11-19T03:35:53;5.80;99.90
16172;DHT22;8192;53.596;10.166;2023-11-19T03:38:22;5.80;99.90
16172;DHT22;8192;53.596;10.166;2023-11-19T03:40:49;5.80;99.90
16172;DHT22;8192;53.596;10.166;2023-11-19T03:43:16;5.90;99.90
16172;DHT22;8192;53.596;10.166;2023-11-19T03:45:44;5.90;99.90
16172;DHT22;8192;53.596;10.166;2023-11-19T03:48:11;5.90;99.90
16172;DHT22;8192;53.596;10.166;2023-11-19T03:50:40;5.90;99.90
16172;DHT22;8192;53.596;10.166;2023-11-19T03:53:07;5.90;99.90
16172;DHT22;8192;53.596;10.166;2023-11-19T03:55:34;6.00;99.90
16172;DHT22;8192;53.596;10.166;2023-11-19T03:58:01;6.10;99.90
16172;DHT22;8192;53.596;10.166;2023-11-19T04:00:28;6.10;99.90
16172;DHT22;8192;53.596;10.166;2023-11-19T04:02:55;6.10;99.90
16172;DHT22;8192;53.596;10.166;2023-11-19T04:05:22;6.10;99.90
16172;DHT22;8192;53.596;10.166;2023-11-19T04:07:50;6.10;99.90
16172;DHT22;8192;53.596;10.166;2023-11-19T04:10:17;6.10;99.90
16172;DHT22;8192;53.596;10.166;2023-11-19T04:12:44;6.20;99.90
16172;DHT22;8192;53.596;10.166;2023-11-19T04:15:11;6.30;99.90
16172;DHT22;8192;53.596;10.166;2023-11-19T04:17:38;6.20;99.90
16172;DHT22;8192;53.596;10.166;2023-11-19T04:20:06;6.20;99.90
16172;DHT22;8192;53.596;10.166;2023-11-19T04:22:36;6.20;99.90
16172;DHT22;8192;53.596;10.166;2023-11-19T04:25:07;6.20;99.90
16172;DHT22;8192;53.596;10.166;2023-11-19T04:27:34;6.20;99.90
16172;DHT22;8192;53.596;10.166;2023-11-19T04:30:01;6.20;99.90
16172;DHT22;8192;53.596;10.166;2023-11-19T04:32:32;6.20;99.90
16172;DHT22;8192;53.596;10.166;2023-11-19T04:34:59;6.30;99.90
16172;DHT22;8192;53.596;10.166;2023-11-19T04:37:26;6.30;99.90
16172;DHT22;8192;53.596;10.166;2023-11-19T04:39:52;6.30;99.90
16172;DHT22;8192;53.596;10.166;2023-11-19T04:42:22;6.30;99.90
16172;DHT22;8192;53.596;10.166;2023-11-19T04:44:49;6.30;99.90
16172;DHT22;8192;53.596;10.166;2023-11-19T04:47:16;6.30;99.90
16172;DHT22;8192;53.596;10.166;2023-11-19T04:49:43;6.30;99.90
16172;DHT22;8192;53.596;10.166;2023-11-19T04:52:10;6.30;99.90
16172;DHT22;8192;53.596;10.166;2023-11-19T04:54:41;6.40;99.90
16172;DHT22;8192;53.596;10.166;2023-11-19T04:57:08;6.50;99.90
16172;DHT22;8192;53.596;10.166;2023-11-19T04:59:37;6.40;99.90
16172;DHT22;8192;53.596;10.166;2023-11-19T05:02:05;6.40;99.90
16172;DHT22;8192;53.596;10.166;2023-11-19T05:04:32;6.40;99.90
16172;DHT22;8192;53.596;10.166;2023-11-19T05:06:59;6.60;99.90
16172;DHT22;8192;53.596;10.166;2023-11-19T05:09:26;6.60;99.90
16172;DHT22;8192;53.596;10.166;2023-11-19T05:11:53;6.60;99.90
16172;DHT22;8192;53.596;10.166;2023-11-19T05:14:20;6.60;99.90
16172;DHT22;8192;53.596;10.166;2023-11-19T05:16:48;6.60;99.90
16172;DHT22;8192;53.596;10.166;2023-11-19T05:19:15;6.70;99.90
16172;DHT22;8192;53.596;10.166;2023-11-19T05:21:42;6.70;99.90
16172;DHT22;8192;53.596;10.166;2023-11-19T05:24:10;6.70;99.90
16172;DHT22;8192;53.596;10.166;2023-11-19T05:26:37;6.80;99.90
16172;DHT22;8192;53.596;10.166;2023-11-19T05:29:04;6.80;99.90
16172;DHT22;8192;53.596;10.166;2023-11-19T05:31:31;6.90;99.90
16172;DHT22;8192;53.596;10.166;2023-11-19T05:33:59;6.90;99.90
16172;DHT22;8192;53.596;10.166;2023-11-19T05:36:26;6.90;99.90
16172;DHT22;8192;53.596;10.166;2023-11-19T05:38:54;7.10;99.90
16172;DHT22;8192;53.596;10.166;2023-11-19T05:41:21;7.20;99.90
16172;DHT22;8192;53.596;10.166;2023-11-19T05:43:48;7.20;99.90
16172;DHT22;8192;53.596;10.166;2023-11-19T05:46:15;7.20;99.90
16172;DHT22;8192;53.596;10.166;2023-11-19T05:48:42;7.20;99.90
16172;DHT22;8192;53.596;10.166;2023-11-19T05:51:12;7.40;99.90
16172;DHT22;8192;53.596;10.166;2023-11-19T05:53:40;7.40;99.90
16172;DHT22;8192;53.596;10.166;2023-11-19T05:56:08;7.30;99.90
16172;DHT22;8192;53.596;10.166;2023-11-19T05:58:35;7.40;99.90
16172;DHT22;8192;53.596;10.166;2023-11-19T06:01:03;7.40;99.90
16172;DHT22;8192;53.596;10.166;2023-11-19T06:03:32;7.50;99.90
16172;DHT22;8192;53.596;10.166;2023-11-19T06:05:59;7.50;99.90
16172;DHT22;8192;53.596;10.166;2023-11-19T06:08:28;7.50;99.90
16172;DHT22;8192;53.596;10.166;2023-11-19T06:10:56;7.60;99.90
16172;DHT22;8192;53.596;10.166;2023-11-19T06:13:23;7.70;99.90
16172;DHT22;8192;53.596;10.166;2023-11-19T06:15:51;7.60;99.90
16172;DHT22;8192;53.596;10.166;2023-11-19T06:18:18;7.70;99.90
16172;DHT22;8192;53.596;10.166;2023-11-19T06:20:46;7.70;99.90
16172;DHT22;8192;53.596;10.166;2023-11-19T06:23:13;7.70;99.90
16172;DHT22;8192;53.596;10.166;2023-11-19T06:25:41;7.80;99.90
16172;DHT22;8192;53.596;10.166;2023-11-19T06:28:08;7.70;99.90
16172;DHT22;8192;53.596;10.166;2023-11-19T06:30:35;7.80;99.90
16172;DHT22;8192;53.596;10.166;2023-11-19T06:33:02;7.80;99.90
16172;DHT22;8192;53.596;10.166;2023-11-19T06:35:30;7.90;99.90
16172;DHT22;8192;53.596;10.166;2023-11-19T06:38:02;7.90;99.90
16172;DHT22;8192;53.596;10.166;2023-11-19T06:40:30;8.00;99.90
16172;DHT22;8192;53.596;10.166;2023-11-19T06:42:58;8.20;99.90
16172;DHT22;8192;53.596;10.166;2023-11-19T06:45:25;8.30;99.90
16172;DHT22;8192;53.596;10.166;2023-11-19T06:47:52;8.50;99.90
16172;DHT22;8192;53.596;10.166;2023-11-19T06:50:19;8.50;99.90
16172;DHT22;8192;53.596;10.166;2023-11-19T06:52:46;8.70;99.90
16172;DHT22;8192;53.596;10.166;2023-11-19T06:55:13;8.90;99.90
16172;DHT22;8192;53.596;10.166;2023-11-19T06:57:40;8.90;99.90
16172;DHT22;8192;53.596;10.166;2023-11-19T07:00:10;9.10;99.90
16172;DHT22;8192;53.596;10.166;2023-11-19T07:02:37;9.30;99.90
16172;DHT22;8192;53.596;10.166;2023-11-19T07:05:05;9.40;99.90
16172;DHT22;8192;53.596;10.166;2023-11-19T07:07:34;9.40;99.90
16172;DHT22;8192;53.596;10.166;2023-11-19T07:10:01;9.40;99.90
16172;DHT22;8192;53.596;10.166;2023-11-19T07:12:29;9.60;99.90
16172;DHT22;8192;53.596;10.166;2023-11-19T07:14:55;9.90;99.90
16172;DHT22;8192;53.596;10.166;2023-11-19T07:17:24;9.90;99.90
16172;DHT22;8192;53.596;10.166;2023-11-19T07:19:51;10.10;99.90
16172;DHT22;8192;53.596;10.166;2023-11-19T07:22:18;10.30;99.90
16172;DHT22;8192;53.596;10.166;2023-11-19T07:24:45;10.40;99.90
16172;DHT22;8192;53.596;10.166;2023-11-19T07:27:12;10.40;99.90
16172;DHT22;8192;53.596;10.166;2023-11-19T07:29:39;10.70;99.90
16172;DHT22;8192;53.596;10.166;2023-11-19T07:32:06;10.80;99.90
16172;DHT22;8192;53.596;10.166;2023-11-19T07:34:35;10.90;99.90
16172;DHT22;8192;53.596;10.166;2023-11-19T07:37:02;10.90;99.90
16172;DHT22;8192;53.596;10.166;2023-11-19T07:39:30;11.00;99.90
16172;DHT22;8192;53.596;10.166;2023-11-19T07:41:57;11.00;99.90
16172;DHT22;8192;53.596;10.166;2023-11-19T07:44:23;11.00;99.90
16172;DHT22;8192;53.596;10.166;2023-11-19T07:46:53;11.00;99.90
16172;DHT22;8192;53.596;10.166;2023-11-19T07:49:22;11.10;99.90
16172;DHT22;8192;53.596;10.166;2023-11-19T07:51:51;11.00;99.90
16172;DHT22;8192;53.596;10.166;2023-11-19T07:54:18;11.00;99.90
16172;DHT22;8192;53.596;10.166;2023-11-19T07:56:46;10.90;99.90
16172;DHT22;8192;53.596;10.166;2023-11-19T07:59:15;11.00;99.90
16172;DHT22;8192;53.596;10.166;2023-11-19T08:01:42;11.10;99.90
16172;DHT22;8192;53.596;10.166;2023-11-19T08:04:10;11.10;99.90
16172;DHT22;8192;53.596;10.166;2023-11-19T08:06:37;11.20;99.90
16172;DHT22;8192;53.596;10.166;2023-11-19T08:09:05;11.20;99.90
16172;DHT22;8192;53.596;10.166;2023-11-19T08:11:39;11.10;99.90
16172;DHT22;8192;53.596;10.166;2023-11-19T08:14:06;11.20;99.90
16172;DHT22;8192;53.596;10.166;2023-11-19T08:16:34;11.20;99.90
16172;DHT22;8192;53.596;10.166;2023-11-19T08:19:02;11.30;99.90
16172;DHT22;8192;53.596;10.166;2023-11-19T08:21:29;11.30;99.90
16172;DHT22;8192;53.596;10.166;2023-11-19T08:23:56;11.40;99.90
16172;DHT22;8192;53.596;10.166;2023-11-19T08:26:24;11.50;99.90
16172;DHT22;8192;53.596;10.166;2023-11-19T08:28:51;11.40;99.90
16172;DHT22;8192;53.596;10.166;2023-11-19T08:31:18;11.40;99.90
16172;DHT22;8192;53.596;10.166;2023-11-19T08:33:45;11.30;99.90
16172;DHT22;8192;53.596;10.166;2023-11-19T08:36:15;11.40;99.90
16172;DHT22;8192;53.596;10.166;2023-11-19T08:38:43;11.40;99.90
16172;DHT22;8192;53.596;10.166;2023-11-19T08:41:10;11.40;99.90
16172;DHT22;8192;53.596;10.166;2023-11-19T08:43:38;11.40;99.90
16172;DHT22;8192;53.596;10.166;2023-11-19T08:46:09;11.50;99.90
16172;DHT22;8192;53.596;10.166;2023-11-19T08:48:36;11.50;99.90
16172;DHT22;8192;53.596;10.166;2023-11-19T08:51:04;11.60;99.90
16172;DHT22;8192;53.596;10.166;2023-11-19T08:53:31;11.60;99.90
16172;DHT22;8192;53.596;10.166;2023-11-19T08:55:58;11.60;99.90
16172;DHT22;8192;53.596;10.166;2023-11-19T08:58:26;11.60;99.90
16172;DHT22;8192;53.596;10.166;2023-11-19T09:00:54;11.50;99.90
16172;DHT22;8192;53.596;10.166;2023-11-19T09:03:21;11.50;99.90
16172;DHT22;8192;53.596;10.166;2023-11-19T09:05:50;11.50;99.90
16172;DHT22;8192;53.596;10.166;2023-11-19T09:08:17;11.60;99.90
16172;DHT22;8192;53.596;10.166;2023-11-19T09:10:44;11.60;99.90
16172;DHT22;8192;53.596;10.166;2023-11-19T09:13:11;11.70;99.90
16172;DHT22;8192;53.596;10.166;2023-11-19T09:15:38;11.70;99.90
16172;DHT22;8192;53.596;10.166;2023-11-19T09:18:06;11.70;99.90
16172;DHT22;8192;53.596;10.166;2023-11-19T09:20:39;11.60;99.90
16172;DHT22;8192;53.596;10.166;2023-11-19T09:23:07;11.60;99.90
16172;DHT22;8192;53.596;10.166;2023-11-19T09:25:34;11.60;99.90
16172;DHT22;8192;53.596;10.166;2023-11-19T09:28:01;11.50;99.90
16172;DHT22;8192;53.596;10.166;2023-11-19T09:30:28;11.60;99.90
16172;DHT22;8192;53.596;10.166;2023-11-19T09:32:56;11.70;99.90
16172;DHT22;8192;53.596;10.166;2023-11-19T09:35:24;11.70;99.90
16172;DHT22;8192;53.596;10.166;2023-11-19T09:37:51;11.70;99.90
16172;DHT22;8192;53.596;10.166;2023-11-19T09:40:19;11.90;99.90
16172;DHT22;8192;53.596;10.166;2023-11-19T09:42:46;11.90;99.90
16172;DHT22;8192;53.596;10.166;2023-11-19T09:45:15;11.90;99.90
16172;DHT22;8192;53.596;10.166;2023-11-19T09:47:44;12.00;99.90
16172;DHT22;8192;53.596;10.166;2023-11-19T09:50:16;12.00;99.90
16172;DHT22;8192;53.596;10.166;2023-11-19T09:52:45;12.00;99.90
16172;DHT22;8192;53.596;10.166;2023-11-19T09:55:12;12.10;99.90
16172;DHT22;8192;53.596;10.166;2023-11-19T09:57:39;12.10;99.90
16172;DHT22;8192;53.596;10.166;2023-11-19T10:00:08;12.10;99.90
16172;DHT22;8192;53.596;10.166;2023-11-19T10:02:36;12.00;99.90
16172;DHT22;8192;53.596;10.166;2023-11-19T10:05:06;12.00;99.90
16172;DHT22;8192;53.596;10.166;2023-11-19T10:07:33;12.00;99.90
16172;DHT22;8192;53.596;10.166;2023-11-19T10:10:02;12.10;99.90
16172;DHT22;8192;53.596;10.166;2023-11-19T10:12:30;12.10;99.90
16172;DHT22;8192;53.596;10.166;2023-11-19T10:14:58;12.20;99.90
16172;DHT22;8192;53.596;10.166;2023-11-19T10:17:28;12.20;99.90
16172;DHT22;8192;53.596;10.166;2023-11-19T10:19:55;12.20;99.90
16172;DHT22;8192;53.596;10.166;2023-11-19T10:22:23;12.20;99.90
16172;DHT22;8192;53.596;10.166;2023-11-19T10:24:50;12.30;99.90
16172;DHT22;8192;53.596;10.166;2023-11-19T10:27:19;12.20;99.90
16172;DHT22;8192;53.596;10.166;2023-11-19T10:29:46;12.10;99.90
16172;DHT22;8192;53.596;10.166;2023-11-19T10:32:13;12.00;99.90
16172;DHT22;8192;53.596;10.166;2023-11-19T10:34:41;11.90;99.90
16172;DHT22;8192;53.596;10.166;2023-11-19T10:37:08;11.90;99.90
16172;DHT22;8192;53.596;10.166;2023-11-19T10:39:54;11.80;99.90
16172;DHT22;8192;53.596;10.166;2023-11-19T10:42:23;11.80;99.90
16172;DHT22;8192;53.596;10.166;2023-11-19T10:44:50;11.80;99.90
16172;DHT22;8192;53.596;10.166;2023-11-19T10:47:19;11.80;99.90
16172;DHT22;8192;53.596;10.166;2023-11-19T10:49:46;11.70;99.90
16172;DHT22;8192;53.596;10.166;2023-11-19T10:52:15;11.80;99.90
16172;DHT22;8192;53.596;10.166;2023-11-19T10:54:44;11.80;99.90
16172;DHT22;8192;53.596;10.166;2023-11-19T10:57:17;11.80;99.90
16172;DHT22;8192;53.596;10.166;2023-11-19T10:59:49;11.80;99.90
16172;DHT22;8192;53.596;10.166;2023-11-19T11:02:21;11.80;99.90
16172;DHT22;8192;53.596;10.166;2023-11-19T11:04:51;11.70;99.90
16172;DHT22;8192;53.596;10.166;2023-11-19T11:07:20;11.60;99.90
16172;DHT22;8192;53.596;10.166;2023-11-19T11:09:48;11.60;99.90
16172;DHT22;8192;53.596;10.166;2023-11-19T11:12:18;11.60;99.90
16172;DHT22;8192;53.596;10.166;2023-11-19T11:14:51;11.60;99.90
16172;DHT22;8192;53.596;10.166;2023-11-19T11:17:20;11.60;99.90
16172;DHT22;8192;53.596;10.166;2023-11-19T11:19:50;11.60;99.90
16172;DHT22;8192;53.596;10.166;2023-11-19T11:22:18;11.70;99.90
16172;DHT22;8192;53.596;10.166;2023-11-19T11:28:03;11.80;99.90
16172;DHT22;8192;53.596;10.166;2023-11-19T11:30:46;11.70;99.90
16172;DHT22;8192;53.596;10.166;2023-11-19T11:33:32;11.80;99.90
16172;DHT22;8192;53.596;10.166;2023-11-19T11:36:11;11.90;99.90
16172;DHT22;8192;53.596;10.166;2023-11-19T11:38:41;12.00;99.90
16172;DHT22;8192;53.596;10.166;2023-11-19T11:41:19;11.90;99.90
16172;DHT22;8192;53.596;10.166;2023-11-19T11:43:47;11.80;99.90
16172;DHT22;8192;53.596;10.166;2023-11-19T11:46:55;11.90;99.90
16172;DHT22;8192;53.596;10.166;2023-11-19T11:49:26;11.80;99.90
16172;DHT22;8192;53.596;10.166;2023-11-19T11:52:02;11.80;99.90
16172;DHT22;8192;53.596;10.166;2023-11-19T11:54:30;11.70;99.90
16172;DHT22;8192;53.596;10.166;2023-11-19T11:57:03;11.70;99.90
16172;DHT22;8192;53.596;10.166;2023-11-19T11:59:46;11.70;99.90
16172;DHT22;8192;53.596;10.166;2023-11-19T12:02:16;11.70;99.90
16172;DHT22;8192;53.596;10.166;2023-11-19T12:04:46;11.70;99.90
16172;DHT22;8192;53.596;10.166;2023-11-19T12:07:15;11.60;99.90
16172;DHT22;8192;53.596;10.166;2023-11-19T12:09:48;11.60;99.90
16172;DHT22;8192;53.596;10.166;2023-11-19T12:12:20;11.50;99.90
16172;DHT22;8192;53.596;10.166;2023-11-19T12:15:01;11.50;99.90
16172;DHT22;8192;53.596;10.166;2023-11-19T12:17:49;11.60;99.90
16172;DHT22;8192;53.596;10.166;2023-11-19T12:20:17;11.70;99.90
16172;DHT22;8192;53.596;10.166;2023-11-19T12:22:46;11.70;99.90
16172;DHT22;8192;53.596;10.166;2023-11-19T12:25:15;11.60;99.90
16172;DHT22;8192;53.596;10.166;2023-11-19T12:27:44;11.70;99.90
16172;DHT22;8192;53.596;10.166;2023-11-19T12:30:12;11.70;99.90
16172;DHT22;8192;53.596;10.166;2023-11-19T12:32:40;11.70;99.90
16172;DHT22;8192;53.596;10.166;2023-11-19T12:35:10;11.70;99.90
16172;DHT22;8192;53.596;10.166;2023-11-19T12:37:41;11.80;99.90
16172;DHT22;8192;53.596;10.166;2023-11-19T12:40:14;11.90;99.90
16172;DHT22;8192;53.596;10.166;2023-11-19T12:42:41;12.00;99.90
16172;DHT22;8192;53.596;10.166;2023-11-19T12:45:08;12.00;99.90
16172;DHT22;8192;53.596;10.166;2023-11-19T12:47:36;11.90;99.90
16172;DHT22;8192;53.596;10.166;2023-11-19T12:50:04;11.80;99.90
16172;DHT22;8192;53.596;10.166;2023-11-19T12:52:34;11.80;99.90
16172;DHT22;8192;53.596;10.166;2023-11-19T12:55:02;11.90;99.90
16172;DHT22;8192;53.596;10.166;2023-11-19T12:57:36;11.70;99.90
16172;DHT22;8192;53.596;10.166;2023-11-19T13:00:05;11.70;99.90
16172;DHT22;8192;53.596;10.166;2023-11-19T13:02:48;11.80;99.90
16172;DHT22;8192;53.596;10.166;2023-11-19T13:05:27;11.90;99.90
16172;DHT22;8192;53.596;10.166;2023-11-19T13:08:03;11.90;99.90
16172;DHT22;8192;53.596;10.166;2023-11-19T13:10:31;11.80;99.90
16172;DHT22;8192;53.596;10.166;2023-11-19T13:13:03;11.80;99.90
16172;DHT22;8192;53.596;10.166;2023-11-19T13:15:31;11.80;99.90
16172;DHT22;8192;53.596;10.166;2023-11-19T13:17:59;11.90;99.90
16172;DHT22;8192;53.596;10.166;2023-11-19T13:20:27;11.90;99.90
16172;DHT22;8192;53.596;10.166;2023-11-19T13:22:56;11.90;99.90
16172;DHT22;8192;53.596;10.166;2023-11-19T13:25:24;11.90;99.90
16172;DHT22;8192;53.596;10.166;2023-11-19T13:27:51;11.90;99.90
16172;DHT22;8192;53.596;10.166;2023-11-19T13:30:18;11.80;99.90
16172;DHT22;8192;53.596;10.166;2023-11-19T13:32:45;11.80;99.90
16172;DHT22;8192;53.596;10.166;2023-11-19T13:35:13;11.90;99.90
16172;DHT22;8192;53.596;10.166;2023-11-19T13:37:40;11.90;99.90
16172;DHT22;8192;53.596;10.166;2023-11-19T13:40:08;11.90;99.90
16172;DHT22;8192;53.596;10.166;2023-11-19T13:42:40;11.90;99.90
16172;DHT22;8192;53.596;10.166;2023-11-19T13:45:08;11.80;99.90
16172;DHT22;8192;53.596;10.166;2023-11-19T13:47:41;11.70;99.90
16172;DHT22;8192;53.596;10.166;2023-11-19T13:50:09;11.70;99.90
16172;DHT22;8192;53.596;10.166;2023-11-19T13:52:36;11.70;99.90
16172;DHT22;8192;53.596;10.166;2023-11-19T13:55:05;11.60;99.90
16172;DHT22;8192;53.596;10.166;2023-11-19T13:57:33;11.70;99.90
16172;DHT22;8192;53.596;10.166;2023-11-19T14:00:02;11.70;99.90
16172;DHT22;8192;53.596;10.166;2023-11-19T14:02:32;11.70;99.90
16172;DHT22;8192;53.596;10.166;2023-11-19T14:04:59;11.60;99.90
16172;DHT22;8192;53.596;10.166;2023-11-19T14:07:26;11.60;99.90
16172;DHT22;8192;53.596;10.166;2023-11-19T14:09:53;11.50;99.90
16172;DHT22;8192;53.596;10.166;2023-11-19T14:12:20;11.50;99.90
16172;DHT22;8192;53.596;10.166;2023-11-19T14:14:47;11.60;99.90
16172;DHT22;8192;53.596;10.166;2023-11-19T14:17:16;11.60;99.90
16172;DHT22;8192;53.596;10.166;2023-11-19T14:19:44;11.60;99.90
16172;DHT22;8192;53.596;10.166;2023-11-19T14:22:13;11.60;99.90
16172;DHT22;8192;53.596;10.166;2023-11-19T14:24:39;11.60;99.90
16172;DHT22;8192;53.596;10.166;2023-11-19T14:27:08;11.70;99.90
16172;DHT22;8192;53.596;10.166;2023-11-19T14:29:35;11.70;99.90
16172;DHT22;8192;53.596;10.166;2023-11-19T14:32:02;11.60;99.90
16172;DHT22;8192;53.596;10.166;2023-11-19T14:34:31;11.60;99.90
16172;DHT22;8192;53.596;10.166;2023-11-19T14:36:58;11.60;99.90
16172;DHT22;8192;53.596;10.166;2023-11-19T14:39:26;11.60;99.90
16172;DHT22;8192;53.596;10.166;2023-11-19T14:41:54;11.50;99.90
16172;DHT22;8192;53.596;10.166;2023-11-19T14:44:24;11.40;99.90
16172;DHT22;8192;53.596;10.166;2023-11-19T14:46:50;11.20;99.90
16172;DHT22;8192;53.596;10.166;2023-11-19T14:49:17;11.10;99.90
16172;DHT22;8192;53.596;10.166;2023-11-19T14:51:46;11.20;99.90
16172;DHT22;8192;53.596;10.166;2023-11-19T14:54:13;11.10;99.90
16172;DHT22;8192;53.596;10.166;2023-11-19T14:56:41;11.10;99.90
16172;DHT22;8192;53.596;10.166;2023-11-19T14:59:08;11.10;99.90
16172;DHT22;8192;53.596;10.166;2023-11-19T15:01:35;11.00;99.90
16172;DHT22;8192;53.596;10.166;2023-11-19T15:04:02;11.00;99.90
16172;DHT22;8192;53.596;10.166;2023-11-19T15:06:29;11.00;99.90
16172;DHT22;8192;53.596;10.166;2023-11-19T15:08:59;10.90;99.90
16172;DHT22;8192;53.596;10.166;2023-11-19T15:11:26;10.70;99.90
16172;DHT22;8192;53.596;10.166;2023-11-19T15:13:53;10.60;99.90
16172;DHT22;8192;53.596;10.166;2023-11-19T15:16:20;10.60;99.90
16172;DHT22;8192;53.596;10.166;2023-11-19T15:18:51;10.50;99.90
16172;DHT22;8192;53.596;10.166;2023-11-19T15:21:19;10.40;99.90
16172;DHT22;8192;53.596;10.166;2023-11-19T15:23:46;10.30;99.90
16172;DHT22;8192;53.596;10.166;2023-11-19T15:26:14;10.30;99.90
16172;DHT22;8192;53.596;10.166;2023-11-19T15:28:41;10.10;99.90
16172;DHT22;8192;53.596;10.166;2023-11-19T15:31:08;10.00;99.90
16172;DHT22;8192;53.596;10.166;2023-11-19T15:33:36;10.00;99.90
16172;DHT22;8192;53.596;10.166;2023-11-19T15:36:05;10.00;99.90
16172;DHT22;8192;53.596;10.166;2023-11-19T15:38:33;9.90;99.90
16172;DHT22;8192;53.596;10.166;2023-11-19T15:41:00;9.80;99.90
16172;DHT22;8192;53.596;10.166;2023-11-19T15:43:29;9.80;99.90
16172;DHT22;8192;53.596;10.166;2023-11-19T15:45:56;9.80;99.90
16172;DHT22;8192;53.596;10.166;2023-11-19T15:48:23;9.70;99.90